Andoya, Norway

9:38 PM CET on February 11, 2016 (GMT +0100)
Andoya Air Base | | Change Station
CLOSE
Current Station
Airport
Location: Andoya,
Elevation: 43 ft
Nearby Weather Stations

Elev 43 ft 69.29 °N, 16.14 °E | Updated 18 minutes ago

Overcast
Overcast
28 °F
Feels Like 18 °F
N
14
Wind Variable Wind from NNW

Today
High -- | Low -- °F
--% Chance of Precip.
Yesterday
High -- | Low -- °F
Precip. -- in
Pressure 29.71 in
Visibility 6.2 miles
Clouds Few 2800 ft
Mostly Cloudy 4700 ft
Overcast 5900 ft
Windchill 18 °F
Dew Point 16 °F
Humidity 59%
Rainfall 0.00 in
Snow Depth Not available.
8:44 AM 3:36 PM
Waxing Crescent, 14% visible
METAR ENAN 112020Z 34012KT 9999 VCSH FEW028 BKN047 OVC059 M02/M09 Q1006
Pressure 29.71 in
Visibility 6.2 miles
Clouds Few 2800 ft
Mostly Cloudy 4700 ft
Overcast 5900 ft
Windchill 18 °F
Dew Point 16 °F
Humidity 59%
Rainfall 0.00 in
Snow Depth Not available.
8:44 AM 3:36 PM
Waxing Crescent, 14% visible
METAR ENAN 112020Z 34012KT 9999 VCSH FEW028 BKN047 OVC059 M02/M09 Q1006

10-Day Weather Forecast

Almanac

Astronomy

Feb. 11, 2016 Rise Set
Actual Time
Civil Twilight
Nautical Twilight
Astronomical Twilight
Moon
Length of Visible Light
Length of Day
Tomorrow will be .
, % of the Moon is Illuminated

Today's Extremes

Country Highs Country Lows

Community

WunderPhotos

Upload Photos

1,892,149 photos uploaded!

WunderBlog® & News

Nearby

Air Quality

  Air Quality AQ Index Pollutant
Not available.

Snow Depth

Station Depth Elevation

Earthquake Activity

City Distance Mag. Time & Date
Minimum magnitude displayed is 2.5.

Coastal Water Temperatures

Place Temperature

Stations

Nearby Weather Stations

Station Location Temp. Windchill Dew Point Humidity Wind Precip. Elev Updated Type